createdAt,value
2023-03-29T00:00:14.275Z,99.90
2023-03-29T00:02:48.608Z,99.90
2023-03-29T00:05:19.626Z,99.90
2023-03-29T00:07:48.107Z,99.90
2023-03-29T00:10:16.585Z,99.90
2023-03-29T00:12:45.019Z,99.90
2023-03-29T00:15:13.752Z,99.90
2023-03-29T00:17:49.518Z,99.90
2023-03-29T00:20:18.953Z,99.90
2023-03-29T00:22:47.746Z,99.90
2023-03-29T00:25:16.454Z,99.90
2023-03-29T00:27:58.876Z,99.90
2023-03-29T00:30:27.361Z,99.90
2023-03-29T00:32:57.421Z,99.90
2023-03-29T00:35:26.163Z,99.90
2023-03-29T00:37:54.585Z,99.90
2023-03-29T00:40:23.032Z,99.90
2023-03-29T00:42:51.576Z,99.90
2023-03-29T00:45:25.236Z,99.90
2023-03-29T00:47:58.520Z,99.90
2023-03-29T00:50:33.941Z,99.90
2023-03-29T00:53:07.428Z,99.90
2023-03-29T00:55:40.045Z,99.90
2023-03-29T00:58:56.172Z,99.90
2023-03-29T01:01:34.145Z,99.90
2023-03-29T01:04:17.998Z,99.90
2023-03-29T01:06:56.962Z,99.90
2023-03-29T01:09:30.402Z,99.90
2023-03-29T01:12:03.778Z,99.90
2023-03-29T01:14:37.889Z,99.90
2023-03-29T01:17:07.505Z,99.90
2023-03-29T01:19:46.251Z,99.90
2023-03-29T01:22:29.916Z,99.90
2023-03-29T01:25:15.957Z,99.90
2023-03-29T01:28:00.753Z,99.90
2023-03-29T01:30:35.318Z,99.90
2023-03-29T01:33:11.541Z,99.90
2023-03-29T01:35:45.393Z,99.90
2023-03-29T01:38:21.320Z,99.90
2023-03-29T01:40:49.776Z,99.90
2023-03-29T01:43:29.069Z,99.90
2023-03-29T01:46:05.922Z,99.90
2023-03-29T01:48:48.009Z,99.90
2023-03-29T01:51:22.021Z,99.90
2023-03-29T01:53:58.758Z,99.90
2023-03-29T01:56:32.203Z,99.90
2023-03-29T01:59:07.709Z,99.90
2023-03-29T02:01:49.283Z,99.90
2023-03-29T02:04:25.528Z,99.90
2023-03-29T02:06:56.823Z,99.90
2023-03-29T02:09:25.443Z,99.90
2023-03-29T02:11:57.348Z,99.90
2023-03-29T02:14:29.491Z,99.90
2023-03-29T02:16:58.372Z,99.90
2023-03-29T02:19:28.065Z,99.90
2023-03-29T02:22:04.749Z,99.90
2023-03-29T02:24:36.837Z,99.90
2023-03-29T02:27:06.212Z,99.90
2023-03-29T02:29:36.176Z,99.90
2023-03-29T02:32:14.059Z,99.90
2023-03-29T02:34:51.390Z,99.90
2023-03-29T02:37:22.981Z,99.90
2023-03-29T02:39:54.938Z,99.90
2023-03-29T02:42:25.604Z,99.90
2023-03-29T02:45:00.579Z,99.90
2023-03-29T02:47:34.630Z,99.90
2023-03-29T02:50:03.523Z,99.90
2023-03-29T02:52:39.389Z,99.90
2023-03-29T02:55:15.072Z,99.90
2023-03-29T02:58:08.364Z,99.90
2023-03-29T03:01:06.762Z,99.90
2023-03-29T03:03:35.789Z,99.90
2023-03-29T03:06:04.757Z,99.90
2023-03-29T03:08:33.325Z,99.90
2023-03-29T03:11:02.012Z,99.90
2023-03-29T03:13:30.963Z,99.90
2023-03-29T03:15:59.441Z,99.90
2023-03-29T03:18:29.398Z,99.90
2023-03-29T03:21:01.897Z,99.90
2023-03-29T03:23:30.863Z,99.90
2023-03-29T03:25:59.419Z,99.90
2023-03-29T03:28:28.407Z,99.90
2023-03-29T03:30:56.782Z,99.90
2023-03-29T03:33:27.006Z,99.90
2023-03-29T03:36:02.894Z,99.90
2023-03-29T03:38:31.629Z,99.90
2023-03-29T03:41:01.458Z,99.90
2023-03-29T03:43:31.348Z,99.90
2023-03-29T03:46:00.006Z,99.90
2023-03-29T03:48:28.705Z,99.90
2023-03-29T03:50:59.963Z,99.90
2023-03-29T03:53:53.440Z,99.90
2023-03-29T03:56:21.944Z,99.90
2023-03-29T03:58:50.408Z,99.90
2023-03-29T04:01:19.788Z,99.90
2023-03-29T04:03:48.452Z,99.90
2023-03-29T04:06:44.210Z,99.90
2023-03-29T04:09:12.936Z,99.90
2023-03-29T04:12:06.768Z,99.90
2023-03-29T04:14:35.700Z,99.90
2023-03-29T04:17:04.209Z,99.90
2023-03-29T04:19:32.712Z,99.90
2023-03-29T04:22:27.714Z,99.90
2023-03-29T04:24:56.251Z,99.90
2023-03-29T04:27:24.713Z,99.90
2023-03-29T04:29:57.620Z,99.90
2023-03-29T04:32:51.547Z,99.90
2023-03-29T04:35:20.250Z,99.90
2023-03-29T04:37:51.170Z,99.90
2023-03-29T04:40:20.938Z,99.90
2023-03-29T04:43:14.677Z,99.90
2023-03-29T04:45:43.284Z,99.90
2023-03-29T04:48:11.824Z,99.90
2023-03-29T04:50:40.323Z,99.90
2023-03-29T04:53:13.315Z,99.90
2023-03-29T04:55:41.863Z,99.90
2023-03-29T04:58:10.367Z,99.90
2023-03-29T05:00:38.817Z,99.90
2023-03-29T05:03:08.032Z,99.90
2023-03-29T05:05:36.534Z,99.90
2023-03-29T05:08:05.102Z,99.90
2023-03-29T05:10:34.933Z,99.90
2023-03-29T05:13:04.131Z,99.90
2023-03-29T05:15:32.794Z,99.90
2023-03-29T05:18:01.561Z,99.90
2023-03-29T05:20:31.469Z,99.90
2023-03-29T05:22:59.959Z,99.90
2023-03-29T05:25:28.425Z,99.90
2023-03-29T05:27:59.721Z,99.90
2023-03-29T05:30:28.324Z,99.90
2023-03-29T05:32:56.911Z,99.00
2023-03-29T05:35:26.352Z,98.20
2023-03-29T05:38:04.285Z,98.50
2023-03-29T05:40:33.724Z,96.60
2023-03-29T05:43:03.977Z,95.90
2023-03-29T05:45:33.611Z,97.40
2023-03-29T05:48:03.976Z,98.60
2023-03-29T05:50:32.631Z,96.70
2023-03-29T05:53:28.369Z,97.40
2023-03-29T05:55:57.286Z,96.90
2023-03-29T05:58:28.527Z,95.00
2023-03-29T06:00:57.143Z,95.40
2023-03-29T06:03:27.466Z,93.80
2023-03-29T06:06:02.435Z,93.60
2023-03-29T06:08:33.715Z,93.80
2023-03-29T06:11:27.976Z,94.10
2023-03-29T06:13:57.903Z,93.10
2023-03-29T06:16:27.055Z,92.70
2023-03-29T06:18:55.732Z,92.50
2023-03-29T06:21:26.587Z,92.30
2023-03-29T06:23:55.340Z,91.50
2023-03-29T06:26:24.028Z,91.80
2023-03-29T06:28:52.771Z,90.60
2023-03-29T06:31:22.895Z,89.50
2023-03-29T06:33:51.330Z,89.60
2023-03-29T06:36:20.310Z,89.70
2023-03-29T06:38:56.381Z,88.60
2023-03-29T06:41:24.890Z,88.10
2023-03-29T06:43:53.595Z,87.70
2023-03-29T06:46:23.459Z,87.50
2023-03-29T06:48:53.146Z,89.10
2023-03-29T06:51:23.305Z,86.80
2023-03-29T06:53:52.089Z,84.20
2023-03-29T06:56:20.745Z,82.80
2023-03-29T06:58:52.653Z,82.10
2023-03-29T07:01:22.933Z,81.50
2023-03-29T07:03:51.421Z,83.10
2023-03-29T07:06:20.576Z,81.20
2023-03-29T07:08:52.740Z,81.10
2023-03-29T07:11:31.524Z,80.60
2023-03-29T07:14:28.622Z,80.60
2023-03-29T07:16:59.524Z,80.60
2023-03-29T07:19:30.253Z,80.30
2023-03-29T07:21:58.816Z,81.20
2023-03-29T07:24:27.361Z,79.20
2023-03-29T07:27:04.253Z,81.50
2023-03-29T07:29:33.471Z,80.60
2023-03-29T07:32:04.360Z,76.20
2023-03-29T07:34:32.775Z,76.60
2023-03-29T07:37:01.227Z,78.10
2023-03-29T07:39:31.048Z,77.70
2023-03-29T07:41:59.669Z,77.30
2023-03-29T07:44:29.564Z,77.20
2023-03-29T07:47:00.009Z,74.90
2023-03-29T07:49:29.870Z,76.00
2023-03-29T07:51:58.472Z,74.50
2023-03-29T07:54:27.128Z,72.50
2023-03-29T07:56:55.584Z,71.50
2023-03-29T07:59:24.165Z,71.80
2023-03-29T08:01:53.104Z,73.00
2023-03-29T08:04:21.760Z,73.30
2023-03-29T08:06:52.411Z,71.10
2023-03-29T08:09:21.237Z,71.10
2023-03-29T08:11:50.314Z,69.20
2023-03-29T08:14:43.686Z,66.90
2023-03-29T08:17:12.232Z,66.80
2023-03-29T08:19:40.924Z,67.50
2023-03-29T08:22:20.926Z,66.00
2023-03-29T08:24:49.386Z,63.30
2023-03-29T08:27:17.899Z,62.40
2023-03-29T08:29:46.650Z,62.30
2023-03-29T08:32:29.168Z,65.20
2023-03-29T08:34:57.620Z,61.10
2023-03-29T08:37:27.517Z,61.20
2023-03-29T08:39:58.509Z,61.00
2023-03-29T08:42:56.760Z,61.70
2023-03-29T08:45:35.436Z,60.90
2023-03-29T08:48:18.662Z,60.70
2023-03-29T08:50:52.766Z,60.80
2023-03-29T08:53:30.315Z,62.10
2023-03-29T08:56:03.515Z,61.30
2023-03-29T08:58:58.482Z,62.20
2023-03-29T09:01:35.021Z,60.40
2023-03-29T09:04:09.987Z,59.70
2023-03-29T09:06:41.224Z,59.90
2023-03-29T09:09:18.549Z,59.30
2023-03-29T09:12:10.595Z,59.40
2023-03-29T09:14:53.559Z,59.20
2023-03-29T09:17:38.935Z,59.40
2023-03-29T09:20:24.688Z,57.80
2023-03-29T09:23:23.413Z,56.90
2023-03-29T09:26:05.332Z,57.80
2023-03-29T09:29:09.028Z,57.00
2023-03-29T09:31:43.896Z,57.00
2023-03-29T09:34:17.993Z,56.20
2023-03-29T09:36:53.492Z,54.70
2023-03-29T09:39:23.868Z,53.60
2023-03-29T09:41:59.799Z,52.80
2023-03-29T09:44:57.196Z,54.10
2023-03-29T09:47:31.582Z,54.20
2023-03-29T09:50:16.651Z,54.00
2023-03-29T09:52:52.215Z,54.80
2023-03-29T09:55:27.416Z,54.80
2023-03-29T09:58:01.561Z,54.00
2023-03-29T10:00:30.188Z,54.00
2023-03-29T10:03:00.534Z,53.10
2023-03-29T10:05:36.780Z,53.10
2023-03-29T10:08:20.317Z,54.00
2023-03-29T10:10:49.589Z,54.30
2023-03-29T10:13:30.718Z,53.50
2023-03-29T10:16:03.720Z,52.90
2023-03-29T10:18:33.735Z,53.60
2023-03-29T10:21:30.538Z,53.10
2023-03-29T10:24:00.500Z,52.90
2023-03-29T10:26:34.476Z,52.80
2023-03-29T10:29:08.403Z,53.30
2023-03-29T10:31:41.673Z,52.60
2023-03-29T10:34:16.578Z,52.20
2023-03-29T10:36:53.606Z,52.00
2023-03-29T10:39:31.715Z,52.20
2023-03-29T10:42:02.095Z,52.70
2023-03-29T10:44:36.141Z,52.00
2023-03-29T10:47:16.748Z,51.20
2023-03-29T10:49:48.126Z,52.20
2023-03-29T10:52:17.863Z,52.20
2023-03-29T10:54:51.713Z,51.60
2023-03-29T10:57:55.062Z,50.50
2023-03-29T11:00:33.450Z,50.50
2023-03-29T11:03:24.173Z,51.60
2023-03-29T11:06:00.488Z,51.00
2023-03-29T11:08:49.862Z,49.90
2023-03-29T11:12:08.266Z,51.00
2023-03-29T11:14:59.535Z,50.70
2023-03-29T11:17:53.247Z,50.00
2023-03-29T11:20:32.094Z,51.20
2023-03-29T11:23:18.214Z,50.80
2023-03-29T11:26:02.476Z,50.40
2023-03-29T11:28:42.267Z,52.00
2023-03-29T11:31:25.896Z,50.90
2023-03-29T11:34:30.506Z,49.40
2023-03-29T11:37:08.688Z,50.80
2023-03-29T11:39:53.323Z,49.30
2023-03-29T11:42:26.778Z,51.00
2023-03-29T11:44:59.704Z,49.00
2023-03-29T11:47:33.352Z,48.50
2023-03-29T11:50:15.887Z,49.70
2023-03-29T11:52:52.546Z,50.70
2023-03-29T11:55:26.237Z,48.60
2023-03-29T11:58:00.197Z,49.40
2023-03-29T12:00:33.935Z,49.10
2023-03-29T12:03:13.122Z,49.10
2023-03-29T12:05:49.560Z,48.00
2023-03-29T12:08:25.448Z,49.10
2023-03-29T12:11:15.379Z,48.40
2023-03-29T12:13:49.209Z,47.50
2023-03-29T12:17:01.108Z,48.00
2023-03-29T12:19:39.673Z,48.50
2023-03-29T12:22:11.629Z,46.70
2023-03-29T12:24:45.841Z,48.40
2023-03-29T12:27:26.655Z,48.20
2023-03-29T12:30:43.519Z,47.90
2023-03-29T12:33:40.271Z,47.90
2023-03-29T12:36:48.279Z,49.00
2023-03-29T12:39:21.618Z,48.70
2023-03-29T12:41:53.237Z,50.00
2023-03-29T12:44:25.065Z,49.50
2023-03-29T12:46:58.199Z,48.80
2023-03-29T12:49:32.790Z,49.00
2023-03-29T12:52:06.092Z,48.50
2023-03-29T12:54:36.053Z,48.70
2023-03-29T12:57:22.153Z,48.70
2023-03-29T12:59:52.388Z,49.30
2023-03-29T13:02:37.644Z,47.80
2023-03-29T13:05:31.162Z,48.30
2023-03-29T13:07:59.758Z,47.70
2023-03-29T13:10:43.736Z,48.50
2023-03-29T13:13:19.465Z,47.10
2023-03-29T13:16:16.268Z,46.80
2023-03-29T13:19:28.703Z,47.40
2023-03-29T13:22:13.912Z,46.60
2023-03-29T13:25:11.491Z,47.80
2023-03-29T13:27:53.540Z,47.40
2023-03-29T13:30:41.012Z,46.50
2023-03-29T13:33:33.567Z,46.90
2023-03-29T13:36:09.004Z,46.10
2023-03-29T13:38:48.837Z,46.10
2023-03-29T13:41:34.341Z,47.00
2023-03-29T13:44:04.200Z,47.60
2023-03-29T13:46:42.083Z,47.70
2023-03-29T13:49:22.268Z,45.40
2023-03-29T13:52:17.088Z,44.40
2023-03-29T13:55:03.069Z,44.60
2023-03-29T13:57:39.956Z,45.20
2023-03-29T14:00:20.369Z,45.20
2023-03-29T14:03:16.334Z,45.80
2023-03-29T14:05:51.916Z,45.90
2023-03-29T14:08:45.933Z,46.00
2023-03-29T14:11:25.960Z,45.20
2023-03-29T14:13:56.451Z,45.10
2023-03-29T14:16:31.648Z,46.50
2023-03-29T14:19:03.596Z,46.80
2023-03-29T14:21:35.385Z,46.40
2023-03-29T14:24:04.544Z,45.80
2023-03-29T14:26:35.963Z,45.70
2023-03-29T14:29:05.351Z,45.70
2023-03-29T14:31:38.588Z,46.40
2023-03-29T14:34:12.898Z,47.10
2023-03-29T14:36:43.655Z,47.10
2023-03-29T14:39:18.413Z,47.20
2023-03-29T14:41:52.857Z,46.90
2023-03-29T14:44:31.129Z,46.50
2023-03-29T14:47:02.982Z,46.50
2023-03-29T14:49:33.111Z,46.70
2023-03-29T14:52:01.835Z,46.50
2023-03-29T14:54:33.395Z,46.50
2023-03-29T14:57:06.535Z,46.90
2023-03-29T14:59:39.780Z,47.80
2023-03-29T15:02:27.162Z,47.60
2023-03-29T15:05:35.627Z,48.00
2023-03-29T15:08:07.393Z,47.50
2023-03-29T15:10:38.800Z,49.20
2023-03-29T15:13:09.762Z,49.10
2023-03-29T15:15:40.934Z,49.50
2023-03-29T15:18:17.703Z,49.40
2023-03-29T15:20:46.546Z,49.60
2023-03-29T15:23:25.663Z,49.10
2023-03-29T15:25:58.451Z,49.10
2023-03-29T15:28:33.811Z,48.90
2023-03-29T15:31:08.157Z,49.30
2023-03-29T15:33:41.821Z,49.50
2023-03-29T15:36:14.200Z,50.30
2023-03-29T15:38:45.376Z,49.90
2023-03-29T15:41:15.514Z,50.10
2023-03-29T15:43:44.366Z,50.70
2023-03-29T15:46:14.655Z,51.30
2023-03-29T15:48:44.612Z,51.40
2023-03-29T15:51:13.531Z,51.60
2023-03-29T15:53:43.719Z,52.20
2023-03-29T15:56:19.479Z,52.10
2023-03-29T15:58:48.834Z,52.60
2023-03-29T16:01:33.444Z,52.80
2023-03-29T16:04:04.007Z,53.10
2023-03-29T16:06:33.557Z,53.00
2023-03-29T16:09:02.068Z,53.80
2023-03-29T16:11:30.957Z,54.00
2023-03-29T16:13:59.981Z,54.20
2023-03-29T16:16:28.596Z,54.90
2023-03-29T16:18:57.116Z,55.10
2023-03-29T16:21:27.283Z,55.30
2023-03-29T16:23:55.857Z,55.50
2023-03-29T16:26:26.214Z,55.70
2023-03-29T16:28:54.739Z,56.10
2023-03-29T16:31:49.231Z,56.40
2023-03-29T16:34:19.305Z,56.30
2023-03-29T16:36:49.654Z,56.30
2023-03-29T16:39:19.215Z,56.20
2023-03-29T16:41:49.089Z,56.10
2023-03-29T16:44:22.489Z,56.20
2023-03-29T16:46:53.821Z,56.10
2023-03-29T16:49:22.564Z,55.40
2023-03-29T16:51:52.408Z,55.40
2023-03-29T16:54:20.999Z,55.80
2023-03-29T16:56:49.556Z,55.80
2023-03-29T16:59:18.010Z,55.90
2023-03-29T17:01:47.009Z,55.80
2023-03-29T17:04:15.729Z,56.10
2023-03-29T17:06:44.134Z,55.80
2023-03-29T17:09:14.010Z,55.90
2023-03-29T17:11:47.462Z,56.10
2023-03-29T17:14:15.995Z,55.80
2023-03-29T17:16:44.626Z,56.10
2023-03-29T17:19:13.378Z,56.00
2023-03-29T17:21:41.804Z,55.80
2023-03-29T17:24:11.010Z,56.00
2023-03-29T17:26:42.168Z,56.30
2023-03-29T17:29:12.889Z,56.30
2023-03-29T17:31:47.585Z,56.60
2023-03-29T17:34:17.366Z,56.90
2023-03-29T17:36:46.842Z,57.00
2023-03-29T17:39:15.874Z,57.30
2023-03-29T17:41:45.785Z,57.60
2023-03-29T17:44:14.239Z,58.00
2023-03-29T17:46:42.805Z,57.90
2023-03-29T17:49:11.304Z,57.90
2023-03-29T17:51:39.896Z,58.00
2023-03-29T17:54:08.541Z,58.20
2023-03-29T17:56:37.004Z,58.30
2023-03-29T17:59:06.872Z,58.70
2023-03-29T18:01:38.481Z,59.40
2023-03-29T18:04:07.700Z,60.10
2023-03-29T18:06:36.453Z,60.60
2023-03-29T18:09:05.693Z,60.70
2023-03-29T18:11:34.177Z,61.00
2023-03-29T18:14:02.715Z,61.10
2023-03-29T18:16:32.960Z,61.40
2023-03-29T18:19:01.683Z,61.80
2023-03-29T18:21:30.234Z,62.10
2023-03-29T18:23:58.824Z,62.50
2023-03-29T18:26:28.538Z,63.00
2023-03-29T18:28:57.186Z,63.30
2023-03-29T18:31:26.066Z,63.70
2023-03-29T18:33:55.875Z,64.10
2023-03-29T18:36:26.184Z,64.50
2023-03-29T18:38:55.891Z,64.80
2023-03-29T18:41:24.935Z,65.30
2023-03-29T18:43:57.296Z,65.50
2023-03-29T18:46:25.860Z,65.50
2023-03-29T18:48:57.415Z,65.90
2023-03-29T18:51:28.239Z,66.10
2023-03-29T18:53:56.993Z,66.40
2023-03-29T18:56:25.686Z,66.70
2023-03-29T18:58:55.155Z,67.00
2023-03-29T19:01:23.623Z,67.50
2023-03-29T19:03:52.186Z,67.80
2023-03-29T19:06:22.056Z,68.00
2023-03-29T19:08:50.587Z,68.40
2023-03-29T19:11:21.719Z,69.00
2023-03-29T19:13:50.845Z,69.30
2023-03-29T19:16:19.610Z,69.80
2023-03-29T19:18:48.128Z,69.80
2023-03-29T19:21:16.605Z,70.80
2023-03-29T19:24:11.235Z,70.30
2023-03-29T19:26:39.856Z,70.20
2023-03-29T19:29:08.634Z,70.10
2023-03-29T19:31:37.991Z,70.30
2023-03-29T19:34:09.546Z,70.40
2023-03-29T19:36:38.141Z,70.30
2023-03-29T19:39:07.501Z,70.30
2023-03-29T19:41:38.189Z,70.50
2023-03-29T19:44:07.918Z,70.50
2023-03-29T19:46:36.627Z,70.50
2023-03-29T19:49:05.780Z,70.80
2023-03-29T19:51:34.388Z,71.00
2023-03-29T19:54:02.795Z,70.70
2023-03-29T19:56:33.193Z,71.00
2023-03-29T19:59:14.839Z,71.30
2023-03-29T20:01:50.808Z,71.40
2023-03-29T20:04:20.571Z,71.60
2023-03-29T20:06:49.457Z,71.50
2023-03-29T20:09:17.922Z,71.70
2023-03-29T20:11:47.724Z,71.70
2023-03-29T20:14:17.568Z,72.00
2023-03-29T20:16:46.296Z,72.60
2023-03-29T20:19:17.618Z,72.80
2023-03-29T20:21:46.235Z,73.20
2023-03-29T20:24:15.121Z,73.50
2023-03-29T20:26:43.633Z,73.90
2023-03-29T20:29:12.086Z,74.20
2023-03-29T20:31:42.501Z,74.30
2023-03-29T20:34:11.584Z,74.50
2023-03-29T20:36:43.898Z,74.70
2023-03-29T20:39:12.561Z,75.10
2023-03-29T20:41:41.000Z,75.50
2023-03-29T20:44:10.552Z,75.70
2023-03-29T20:46:46.234Z,76.20
2023-03-29T20:49:16.143Z,76.70
2023-03-29T20:51:44.588Z,76.90
2023-03-29T20:54:13.138Z,76.70
2023-03-29T20:56:42.556Z,76.90
2023-03-29T20:59:12.150Z,77.20
2023-03-29T21:01:41.206Z,76.90
2023-03-29T21:04:23.527Z,77.10
2023-03-29T21:06:52.103Z,77.30
2023-03-29T21:09:23.514Z,77.60
2023-03-29T21:11:53.157Z,77.50
2023-03-29T21:14:22.261Z,77.70
2023-03-29T21:16:51.298Z,77.60
2023-03-29T21:19:19.851Z,77.80
2023-03-29T21:21:52.177Z,77.70
2023-03-29T21:24:21.085Z,77.40
2023-03-29T21:26:58.482Z,78.10
2023-03-29T21:29:27.519Z,77.60
2023-03-29T21:31:56.195Z,77.30
2023-03-29T21:34:24.871Z,76.60
2023-03-29T21:36:54.731Z,76.40
2023-03-29T21:39:23.500Z,75.90
2023-03-29T21:41:52.065Z,75.80
2023-03-29T21:44:20.885Z,76.30
2023-03-29T21:46:49.372Z,75.80
2023-03-29T21:49:17.879Z,76.10
2023-03-29T21:51:46.502Z,76.80
2023-03-29T21:54:16.335Z,76.00
2023-03-29T21:56:45.917Z,76.10
2023-03-29T21:59:14.611Z,75.70
2023-03-29T22:01:43.060Z,76.10
2023-03-29T22:04:12.313Z,76.50
2023-03-29T22:06:41.898Z,76.60
2023-03-29T22:09:10.783Z,77.10
2023-03-29T22:11:40.733Z,77.30
2023-03-29T22:14:09.647Z,77.60
2023-03-29T22:16:38.432Z,77.90
2023-03-29T22:19:32.213Z,77.60
2023-03-29T22:22:01.540Z,77.40
2023-03-29T22:24:30.398Z,77.90
2023-03-29T22:27:00.293Z,77.50
2023-03-29T22:29:28.795Z,77.40
2023-03-29T22:31:57.196Z,77.00
2023-03-29T22:34:25.755Z,77.50
2023-03-29T22:36:54.218Z,77.40
2023-03-29T22:39:22.878Z,77.60
2023-03-29T22:41:57.168Z,77.70
2023-03-29T22:44:27.105Z,77.80
2023-03-29T22:46:55.796Z,77.10
2023-03-29T22:49:28.471Z,76.50
2023-03-29T22:51:57.034Z,77.00
2023-03-29T22:54:25.554Z,77.00
2023-03-29T22:56:54.053Z,77.00
2023-03-29T22:59:22.640Z,77.00
2023-03-29T23:01:52.838Z,77.30
2023-03-29T23:04:21.475Z,77.60
2023-03-29T23:06:49.982Z,77.60
2023-03-29T23:09:18.396Z,77.70
2023-03-29T23:12:11.944Z,77.50
2023-03-29T23:14:42.596Z,78.50
2023-03-29T23:17:13.460Z,78.40
2023-03-29T23:19:41.902Z,78.70
2023-03-29T23:22:10.269Z,79.80
2023-03-29T23:24:38.645Z,81.10
2023-03-29T23:27:15.451Z,82.30
2023-03-29T23:29:45.313Z,83.20
2023-03-29T23:32:16.222Z,84.70
2023-03-29T23:34:45.164Z,85.40
2023-03-29T23:37:13.593Z,85.80
2023-03-29T23:39:42.233Z,87.00
2023-03-29T23:42:20.063Z,86.70
2023-03-29T23:44:48.568Z,86.90
2023-03-29T23:47:18.566Z,87.30
2023-03-29T23:49:47.811Z,87.10
2023-03-29T23:52:16.231Z,87.30
2023-03-29T23:54:44.677Z,87.30
2023-03-29T23:57:13.180Z,86.80
2023-03-29T23:59:42.699Z,86.60
